CPX317 Details

Departure: Portland International Airport (KPDX)
Arrival: Phoenix Sky Harbor International Airport (KPHX) at N/A
Route: BTG J159 DSD REO J523 ELY WINEN Q35 CORKR TENTS BRUSR1
Notes:


Current Weather Information
KPDX 231253Z 07005KT 1/4SM R10R/P6000FT BR OVC002 07/06 A3045 RMK AO2 SFC VIS 1 1/2 SLP311 T00720061
KPHX 231251Z 00000KT 10SM FEW250 18/00 A2990 RMK AO2 SLP112 T01780000